sensor_id;sensor_type;location;lat;lon;timestamp;P1;durP1;ratioP1;P2;durP2;ratioP2
75990;SDS011;64673;52.276;10.560;2023-05-15T00:01:12;13.10;;;7.70;;
75990;SDS011;64673;52.276;10.560;2023-05-15T00:03:37;13.98;;;7.18;;
75990;SDS011;64673;52.276;10.560;2023-05-15T00:06:02;12.15;;;8.50;;
75990;SDS011;64673;52.276;10.560;2023-05-15T00:08:28;13.65;;;8.15;;
75990;SDS011;64673;52.276;10.560;2023-05-15T00:10:53;11.18;;;7.70;;
75990;SDS011;64673;52.276;10.560;2023-05-15T00:13:18;12.65;;;7.78;;
75990;SDS011;64673;52.276;10.560;2023-05-15T00:15:44;13.05;;;8.50;;
75990;SDS011;64673;52.276;10.560;2023-05-15T00:18:09;12.90;;;7.43;;
75990;SDS011;64673;52.276;10.560;2023-05-15T00:20:34;13.77;;;8.55;;
75990;SDS011;64673;52.276;10.560;2023-05-15T00:23:00;11.95;;;7.55;;
75990;SDS011;64673;52.276;10.560;2023-05-15T00:25:25;14.23;;;7.65;;
75990;SDS011;64673;52.276;10.560;2023-05-15T00:27:50;13.80;;;7.93;;
75990;SDS011;64673;52.276;10.560;2023-05-15T00:30:16;11.95;;;7.93;;
75990;SDS011;64673;52.276;10.560;2023-05-15T00:32:41;13.68;;;8.05;;
75990;SDS011;64673;52.276;10.560;2023-05-15T00:35:06;12.02;;;7.95;;
75990;SDS011;64673;52.276;10.560;2023-05-15T00:37:32;14.20;;;8.35;;
75990;SDS011;64673;52.276;10.560;2023-05-15T00:39:57;13.13;;;8.43;;
75990;SDS011;64673;52.276;10.560;2023-05-15T00:42:23;12.73;;;7.93;;
75990;SDS011;64673;52.276;10.560;2023-05-15T00:44:49;12.88;;;8.27;;
75990;SDS011;64673;52.276;10.560;2023-05-15T00:47:16;14.75;;;9.68;;
75990;SDS011;64673;52.276;10.560;2023-05-15T00:52:09;12.65;;;8.30;;
75990;SDS011;64673;52.276;10.560;2023-05-15T00:54:35;10.43;;;7.50;;
75990;SDS011;64673;52.276;10.560;2023-05-15T00:57:01;13.40;;;7.78;;
75990;SDS011;64673;52.276;10.560;2023-05-15T00:59:29;11.25;;;7.93;;
75990;SDS011;64673;52.276;10.560;2023-05-15T01:01:56;13.73;;;8.43;;
75990;SDS011;64673;52.276;10.560;2023-05-15T01:04:21;13.82;;;8.00;;
75990;SDS011;64673;52.276;10.560;2023-05-15T01:06:47;12.45;;;8.23;;
75990;SDS011;64673;52.276;10.560;2023-05-15T01:09:13;13.93;;;8.27;;
75990;SDS011;64673;52.276;10.560;2023-05-15T01:11:39;14.20;;;8.55;;
75990;SDS011;64673;52.276;10.560;2023-05-15T01:14:06;14.15;;;9.05;;
75990;SDS011;64673;52.276;10.560;2023-05-15T01:16:32;15.38;;;9.43;;
75990;SDS011;64673;52.276;10.560;2023-05-15T01:18:59;17.17;;;9.35;;
75990;SDS011;64673;52.276;10.560;2023-05-15T01:27:17;14.13;;;9.63;;
75990;SDS011;64673;52.276;10.560;2023-05-15T01:32:31;17.85;;;9.45;;
75990;SDS011;64673;52.276;10.560;2023-05-15T01:37:43;15.75;;;9.27;;
75990;SDS011;64673;52.276;10.560;2023-05-15T01:40:14;16.35;;;9.55;;
75990;SDS011;64673;52.276;10.560;2023-05-15T01:42:42;15.98;;;9.52;;
75990;SDS011;64673;52.276;10.560;2023-05-15T01:45:15;14.70;;;9.30;;
75990;SDS011;64673;52.276;10.560;2023-05-15T01:47:45;16.55;;;9.93;;
75990;SDS011;64673;52.276;10.560;2023-05-15T01:50:13;14.60;;;8.98;;
75990;SDS011;64673;52.276;10.560;2023-05-15T01:52:42;13.70;;;8.95;;
75990;SDS011;64673;52.276;10.560;2023-05-15T01:55:10;18.70;;;9.38;;
75990;SDS011;64673;52.276;10.560;2023-05-15T01:57:38;16.48;;;9.02;;
75990;SDS011;64673;52.276;10.560;2023-05-15T02:00:07;13.35;;;8.77;;
75990;SDS011;64673;52.276;10.560;2023-05-15T02:05:00;15.25;;;9.43;;
75990;SDS011;64673;52.276;10.560;2023-05-15T02:07:26;15.68;;;8.95;;
75990;SDS011;64673;52.276;10.560;2023-05-15T02:09:52;15.23;;;9.68;;
75990;SDS011;64673;52.276;10.560;2023-05-15T02:12:18;16.13;;;9.68;;
75990;SDS011;64673;52.276;10.560;2023-05-15T02:14:45;18.67;;;9.48;;
75990;SDS011;64673;52.276;10.560;2023-05-15T02:17:13;15.23;;;9.13;;
75990;SDS011;64673;52.276;10.560;2023-05-15T02:19:39;14.88;;;8.93;;
75990;SDS011;64673;52.276;10.560;2023-05-15T02:22:04;14.85;;;9.27;;
75990;SDS011;64673;52.276;10.560;2023-05-15T02:24:29;16.83;;;9.70;;
75990;SDS011;64673;52.276;10.560;2023-05-15T02:27:03;14.73;;;9.23;;
75990;SDS011;64673;52.276;10.560;2023-05-15T02:37:40;15.35;;;9.27;;
75990;SDS011;64673;52.276;10.560;2023-05-15T02:40:10;15.60;;;9.55;;
75990;SDS011;64673;52.276;10.560;2023-05-15T02:42:37;14.13;;;8.65;;
75990;SDS011;64673;52.276;10.560;2023-05-15T02:45:03;15.05;;;9.20;;
75990;SDS011;64673;52.276;10.560;2023-05-15T02:47:29;13.63;;;8.15;;
75990;SDS011;64673;52.276;10.560;2023-05-15T02:49:57;15.80;;;8.98;;
75990;SDS011;64673;52.276;10.560;2023-05-15T02:52:23;13.10;;;9.07;;
75990;SDS011;64673;52.276;10.560;2023-05-15T02:54:49;13.23;;;8.48;;
75990;SDS011;64673;52.276;10.560;2023-05-15T02:57:14;14.88;;;8.93;;
75990;SDS011;64673;52.276;10.560;2023-05-15T02:59:40;13.75;;;9.00;;
75990;SDS011;64673;52.276;10.560;2023-05-15T03:02:05;13.52;;;8.82;;
75990;SDS011;64673;52.276;10.560;2023-05-15T03:04:30;14.20;;;8.73;;
75990;SDS011;64673;52.276;10.560;2023-05-15T03:06:56;15.63;;;9.32;;
75990;SDS011;64673;52.276;10.560;2023-05-15T03:09:21;16.45;;;9.52;;
75990;SDS011;64673;52.276;10.560;2023-05-15T03:11:47;16.95;;;10.88;;
75990;SDS011;64673;52.276;10.560;2023-05-15T03:14:12;21.13;;;9.82;;
75990;SDS011;64673;52.276;10.560;2023-05-15T03:16:37;15.20;;;9.60;;
75990;SDS011;64673;52.276;10.560;2023-05-15T03:19:03;14.85;;;8.98;;
75990;SDS011;64673;52.276;10.560;2023-05-15T03:21:29;14.02;;;9.00;;
75990;SDS011;64673;52.276;10.560;2023-05-15T03:23:54;15.65;;;9.25;;
75990;SDS011;64673;52.276;10.560;2023-05-15T03:26:20;15.27;;;9.43;;
75990;SDS011;64673;52.276;10.560;2023-05-15T03:28:45;12.35;;;8.52;;
75990;SDS011;64673;52.276;10.560;2023-05-15T03:31:11;13.02;;;9.05;;
75990;SDS011;64673;52.276;10.560;2023-05-15T03:33:38;14.20;;;8.95;;
75990;SDS011;64673;52.276;10.560;2023-05-15T03:36:04;13.50;;;9.07;;
75990;SDS011;64673;52.276;10.560;2023-05-15T03:38:30;13.85;;;8.70;;
75990;SDS011;64673;52.276;10.560;2023-05-15T03:40:55;13.10;;;8.55;;
75990;SDS011;64673;52.276;10.560;2023-05-15T03:43:21;12.45;;;8.07;;
75990;SDS011;64673;52.276;10.560;2023-05-15T03:45:46;15.23;;;8.90;;
75990;SDS011;64673;52.276;10.560;2023-05-15T03:48:11;16.73;;;8.88;;
75990;SDS011;64673;52.276;10.560;2023-05-15T03:50:37;14.90;;;9.45;;
75990;SDS011;64673;52.276;10.560;2023-05-15T03:53:03;15.63;;;9.55;;
75990;SDS011;64673;52.276;10.560;2023-05-15T03:55:28;19.77;;;10.25;;
75990;SDS011;64673;52.276;10.560;2023-05-15T03:57:54;16.80;;;9.82;;
75990;SDS011;64673;52.276;10.560;2023-05-15T04:00:19;18.77;;;10.32;;
75990;SDS011;64673;52.276;10.560;2023-05-15T04:02:46;17.85;;;9.85;;
75990;SDS011;64673;52.276;10.560;2023-05-15T04:05:11;16.17;;;9.98;;
75990;SDS011;64673;52.276;10.560;2023-05-15T04:07:36;16.13;;;9.70;;
75990;SDS011;64673;52.276;10.560;2023-05-15T04:10:02;17.85;;;10.57;;
75990;SDS011;64673;52.276;10.560;2023-05-15T04:12:28;17.08;;;9.73;;
75990;SDS011;64673;52.276;10.560;2023-05-15T04:14:58;16.17;;;10.15;;
75990;SDS011;64673;52.276;10.560;2023-05-15T04:17:37;18.77;;;10.05;;
75990;SDS011;64673;52.276;10.560;2023-05-15T04:20:02;15.15;;;9.52;;
75990;SDS011;64673;52.276;10.560;2023-05-15T04:22:29;13.70;;;10.05;;
75990;SDS011;64673;52.276;10.560;2023-05-15T04:24:54;15.35;;;9.32;;
75990;SDS011;64673;52.276;10.560;2023-05-15T04:27:19;16.13;;;10.02;;
75990;SDS011;64673;52.276;10.560;2023-05-15T04:29:45;14.75;;;9.30;;
75990;SDS011;64673;52.276;10.560;2023-05-15T04:32:10;15.18;;;9.65;;
75990;SDS011;64673;52.276;10.560;2023-05-15T04:34:36;15.55;;;9.70;;
75990;SDS011;64673;52.276;10.560;2023-05-15T04:37:02;14.02;;;9.85;;
75990;SDS011;64673;52.276;10.560;2023-05-15T04:39:27;15.38;;;9.38;;
75990;SDS011;64673;52.276;10.560;2023-05-15T04:41:52;17.40;;;10.00;;
75990;SDS011;64673;52.276;10.560;2023-05-15T04:44:18;20.83;;;12.18;;
75990;SDS011;64673;52.276;10.560;2023-05-15T04:46:43;19.42;;;11.63;;
75990;SDS011;64673;52.276;10.560;2023-05-15T04:49:08;22.98;;;11.60;;
75990;SDS011;64673;52.276;10.560;2023-05-15T04:51:34;17.40;;;10.38;;
75990;SDS011;64673;52.276;10.560;2023-05-15T04:53:59;14.55;;;9.25;;
75990;SDS011;64673;52.276;10.560;2023-05-15T04:56:24;13.95;;;8.90;;
75990;SDS011;64673;52.276;10.560;2023-05-15T04:58:50;17.13;;;9.30;;
75990;SDS011;64673;52.276;10.560;2023-05-15T05:01:15;13.57;;;8.43;;
75990;SDS011;64673;52.276;10.560;2023-05-15T05:03:40;13.85;;;7.72;;
75990;SDS011;64673;52.276;10.560;2023-05-15T05:06:06;12.20;;;8.47;;
75990;SDS011;64673;52.276;10.560;2023-05-15T05:08:31;15.90;;;9.00;;
75990;SDS011;64673;52.276;10.560;2023-05-15T05:10:56;13.13;;;8.97;;
75990;SDS011;64673;52.276;10.560;2023-05-15T05:13:22;15.32;;;9.27;;
75990;SDS011;64673;52.276;10.560;2023-05-15T05:15:47;15.60;;;9.93;;
75990;SDS011;64673;52.276;10.560;2023-05-15T05:18:12;20.85;;;9.73;;
75990;SDS011;64673;52.276;10.560;2023-05-15T05:20:38;15.38;;;9.15;;
75990;SDS011;64673;52.276;10.560;2023-05-15T05:23:03;20.52;;;9.93;;
75990;SDS011;64673;52.276;10.560;2023-05-15T05:25:28;13.82;;;8.70;;
75990;SDS011;64673;52.276;10.560;2023-05-15T05:27:54;16.15;;;10.05;;
75990;SDS011;64673;52.276;10.560;2023-05-15T05:30:19;15.30;;;9.43;;
75990;SDS011;64673;52.276;10.560;2023-05-15T05:32:46;17.60;;;10.13;;
75990;SDS011;64673;52.276;10.560;2023-05-15T05:35:11;19.30;;;10.93;;
75990;SDS011;64673;52.276;10.560;2023-05-15T05:37:37;16.58;;;10.32;;
75990;SDS011;64673;52.276;10.560;2023-05-15T05:40:02;16.80;;;9.70;;
75990;SDS011;64673;52.276;10.560;2023-05-15T05:42:30;15.63;;;9.68;;
75990;SDS011;64673;52.276;10.560;2023-05-15T05:44:56;14.02;;;9.38;;
75990;SDS011;64673;52.276;10.560;2023-05-15T05:47:21;15.32;;;9.77;;
75990;SDS011;64673;52.276;10.560;2023-05-15T05:49:46;14.77;;;9.77;;
75990;SDS011;64673;52.276;10.560;2023-05-15T05:52:12;16.75;;;9.35;;
75990;SDS011;64673;52.276;10.560;2023-05-15T05:54:37;17.05;;;10.35;;
75990;SDS011;64673;52.276;10.560;2023-05-15T05:57:02;13.52;;;9.48;;
75990;SDS011;64673;52.276;10.560;2023-05-15T05:59:28;14.20;;;10.07;;
75990;SDS011;64673;52.276;10.560;2023-05-15T06:01:54;15.73;;;10.35;;
75990;SDS011;64673;52.276;10.560;2023-05-15T06:04:19;19.45;;;10.13;;
75990;SDS011;64673;52.276;10.560;2023-05-15T06:06:45;15.93;;;9.75;;
75990;SDS011;64673;52.276;10.560;2023-05-15T06:09:10;16.05;;;9.55;;
75990;SDS011;64673;52.276;10.560;2023-05-15T06:11:35;15.93;;;9.60;;
75990;SDS011;64673;52.276;10.560;2023-05-15T06:14:01;15.80;;;8.35;;
75990;SDS011;64673;52.276;10.560;2023-05-15T06:16:26;13.02;;;8.32;;
75990;SDS011;64673;52.276;10.560;2023-05-15T06:18:51;13.70;;;8.55;;
75990;SDS011;64673;52.276;10.560;2023-05-15T06:21:17;16.02;;;9.00;;
75990;SDS011;64673;52.276;10.560;2023-05-15T06:23:42;11.85;;;8.10;;
75990;SDS011;64673;52.276;10.560;2023-05-15T06:26:07;14.38;;;8.15;;
75990;SDS011;64673;52.276;10.560;2023-05-15T06:28:33;13.05;;;7.97;;
75990;SDS011;64673;52.276;10.560;2023-05-15T06:30:58;13.85;;;8.07;;
75990;SDS011;64673;52.276;10.560;2023-05-15T06:33:24;13.23;;;8.38;;
75990;SDS011;64673;52.276;10.560;2023-05-15T06:35:49;19.25;;;8.70;;
75990;SDS011;64673;52.276;10.560;2023-05-15T06:38:14;12.73;;;8.18;;
75990;SDS011;64673;52.276;10.560;2023-05-15T06:40:40;11.82;;;7.88;;
75990;SDS011;64673;52.276;10.560;2023-05-15T06:43:06;11.05;;;8.30;;
75990;SDS011;64673;52.276;10.560;2023-05-15T06:45:31;11.35;;;8.25;;
75990;SDS011;64673;52.276;10.560;2023-05-15T06:47:56;12.95;;;7.63;;
75990;SDS011;64673;52.276;10.560;2023-05-15T06:50:22;12.10;;;7.45;;
75990;SDS011;64673;52.276;10.560;2023-05-15T06:52:47;11.45;;;7.05;;
75990;SDS011;64673;52.276;10.560;2023-05-15T06:55:12;10.70;;;6.47;;
75990;SDS011;64673;52.276;10.560;2023-05-15T06:57:38;10.77;;;6.57;;
75990;SDS011;64673;52.276;10.560;2023-05-15T07:00:03;11.45;;;7.10;;
75990;SDS011;64673;52.276;10.560;2023-05-15T07:02:29;10.18;;;6.80;;
75990;SDS011;64673;52.276;10.560;2023-05-15T07:04:55;11.20;;;7.10;;
75990;SDS011;64673;52.276;10.560;2023-05-15T07:07:20;10.30;;;6.28;;
75990;SDS011;64673;52.276;10.560;2023-05-15T07:09:46;9.05;;;6.90;;
75990;SDS011;64673;52.276;10.560;2023-05-15T07:12:12;10.82;;;6.88;;
75990;SDS011;64673;52.276;10.560;2023-05-15T07:14:38;9.85;;;6.82;;
75990;SDS011;64673;52.276;10.560;2023-05-15T07:17:04;9.05;;;6.50;;
75990;SDS011;64673;52.276;10.560;2023-05-15T07:19:29;8.98;;;6.43;;
75990;SDS011;64673;52.276;10.560;2023-05-15T07:21:55;10.50;;;6.50;;
75990;SDS011;64673;52.276;10.560;2023-05-15T07:24:20;9.73;;;6.43;;
75990;SDS011;64673;52.276;10.560;2023-05-15T07:26:45;10.05;;;6.70;;
75990;SDS011;64673;52.276;10.560;2023-05-15T07:29:11;8.55;;;6.53;;
75990;SDS011;64673;52.276;10.560;2023-05-15T07:31:36;10.07;;;6.72;;
75990;SDS011;64673;52.276;10.560;2023-05-15T07:34:03;11.93;;;6.55;;
75990;SDS011;64673;52.276;10.560;2023-05-15T07:36:29;11.75;;;6.97;;
75990;SDS011;64673;52.276;10.560;2023-05-15T07:38:54;10.02;;;6.47;;
75990;SDS011;64673;52.276;10.560;2023-05-15T07:41:20;9.95;;;6.35;;
75990;SDS011;64673;52.276;10.560;2023-05-15T07:43:45;7.70;;;5.68;;
75990;SDS011;64673;52.276;10.560;2023-05-15T07:46:11;9.55;;;6.50;;
75990;SDS011;64673;52.276;10.560;2023-05-15T07:48:36;8.85;;;5.60;;
75990;SDS011;64673;52.276;10.560;2023-05-15T07:51:01;9.00;;;5.38;;
75990;SDS011;64673;52.276;10.560;2023-05-15T07:53:27;6.63;;;5.05;;
75990;SDS011;64673;52.276;10.560;2023-05-15T07:55:52;9.35;;;5.10;;
75990;SDS011;64673;52.276;10.560;2023-05-15T07:58:18;8.95;;;4.80;;
75990;SDS011;64673;52.276;10.560;2023-05-15T08:00:43;10.32;;;5.38;;
75990;SDS011;64673;52.276;10.560;2023-05-15T08:03:09;8.05;;;5.28;;
75990;SDS011;64673;52.276;10.560;2023-05-15T08:05:35;7.63;;;5.68;;
75990;SDS011;64673;52.276;10.560;2023-05-15T08:08:00;8.98;;;5.18;;
75990;SDS011;64673;52.276;10.560;2023-05-15T08:10:25;7.32;;;5.93;;
75990;SDS011;64673;52.276;10.560;2023-05-15T08:12:51;9.00;;;6.50;;
75990;SDS011;64673;52.276;10.560;2023-05-15T08:15:16;9.82;;;6.20;;
75990;SDS011;64673;52.276;10.560;2023-05-15T08:17:41;8.70;;;6.30;;
75990;SDS011;64673;52.276;10.560;2023-05-15T08:20:07;10.73;;;6.22;;
75990;SDS011;64673;52.276;10.560;2023-05-15T08:22:33;12.50;;;6.63;;
75990;SDS011;64673;52.276;10.560;2023-05-15T08:24:58;9.02;;;6.50;;
75990;SDS011;64673;52.276;10.560;2023-05-15T08:27:24;9.95;;;6.30;;
75990;SDS011;64673;52.276;10.560;2023-05-15T08:29:50;9.68;;;6.13;;
75990;SDS011;64673;52.276;10.560;2023-05-15T08:32:16;9.43;;;6.25;;
75990;SDS011;64673;52.276;10.560;2023-05-15T08:34:42;10.80;;;6.10;;
75990;SDS011;64673;52.276;10.560;2023-05-15T08:37:08;10.98;;;6.88;;
75990;SDS011;64673;52.276;10.560;2023-05-15T08:39:33;10.50;;;6.13;;
75990;SDS011;64673;52.276;10.560;2023-05-15T08:42:04;8.18;;;5.80;;
75990;SDS011;64673;52.276;10.560;2023-05-15T08:44:34;11.88;;;5.63;;
75990;SDS011;64673;52.276;10.560;2023-05-15T08:47:00;13.30;;;6.20;;
75990;SDS011;64673;52.276;10.560;2023-05-15T08:49:35;7.97;;;5.57;;
75990;SDS011;64673;52.276;10.560;2023-05-15T08:52:05;8.85;;;4.97;;
75990;SDS011;64673;52.276;10.560;2023-05-15T08:54:31;8.13;;;5.40;;
75990;SDS011;64673;52.276;10.560;2023-05-15T08:56:57;10.00;;;5.13;;
75990;SDS011;64673;52.276;10.560;2023-05-15T08:59:22;7.53;;;4.75;;
75990;SDS011;64673;52.276;10.560;2023-05-15T09:01:49;8.48;;;4.88;;
75990;SDS011;64673;52.276;10.560;2023-05-15T09:04:14;7.10;;;4.97;;
75990;SDS011;64673;52.276;10.560;2023-05-15T09:06:40;9.57;;;5.18;;
75990;SDS011;64673;52.276;10.560;2023-05-15T09:09:07;5.97;;;4.55;;
75990;SDS011;64673;52.276;10.560;2023-05-15T09:11:33;6.60;;;4.70;;
75990;SDS011;64673;52.276;10.560;2023-05-15T09:14:00;9.43;;;5.00;;
75990;SDS011;64673;52.276;10.560;2023-05-15T09:16:26;7.38;;;4.63;;
75990;SDS011;64673;52.276;10.560;2023-05-15T09:18:52;6.07;;;4.53;;
75990;SDS011;64673;52.276;10.560;2023-05-15T09:21:24;8.07;;;4.00;;
75990;SDS011;64673;52.276;10.560;2023-05-15T09:23:51;7.03;;;4.75;;
75990;SDS011;64673;52.276;10.560;2023-05-15T09:26:19;5.82;;;4.32;;
75990;SDS011;64673;52.276;10.560;2023-05-15T09:28:45;6.18;;;4.20;;
75990;SDS011;64673;52.276;10.560;2023-05-15T09:31:11;5.55;;;4.25;;
75990;SDS011;64673;52.276;10.560;2023-05-15T09:33:37;7.05;;;4.35;;
75990;SDS011;64673;52.276;10.560;2023-05-15T09:36:04;5.72;;;4.22;;
75990;SDS011;64673;52.276;10.560;2023-05-15T09:38:31;7.75;;;4.32;;
75990;SDS011;64673;52.276;10.560;2023-05-15T09:41:02;6.70;;;3.67;;
75990;SDS011;64673;52.276;10.560;2023-05-15T09:43:28;9.45;;;4.07;;
75990;SDS011;64673;52.276;10.560;2023-05-15T09:45:58;7.20;;;3.92;;
75990;SDS011;64673;52.276;10.560;2023-05-15T09:48:23;6.05;;;3.95;;
75990;SDS011;64673;52.276;10.560;2023-05-15T09:50:48;6.50;;;4.25;;
75990;SDS011;64673;52.276;10.560;2023-05-15T09:53:14;5.30;;;4.25;;
75990;SDS011;64673;52.276;10.560;2023-05-15T09:55:40;5.82;;;4.00;;
75990;SDS011;64673;52.276;10.560;2023-05-15T09:58:07;7.15;;;4.13;;
75990;SDS011;64673;52.276;10.560;2023-05-15T10:00:35;4.93;;;4.13;;
75990;SDS011;64673;52.276;10.560;2023-05-15T10:03:02;5.88;;;3.90;;
75990;SDS011;64673;52.276;10.560;2023-05-15T10:05:31;7.03;;;4.25;;
75990;SDS011;64673;52.276;10.560;2023-05-15T10:07:57;6.05;;;4.15;;
75990;SDS011;64673;52.276;10.560;2023-05-15T10:10:24;5.22;;;4.07;;
75990;SDS011;64673;52.276;10.560;2023-05-15T10:12:50;6.55;;;4.40;;
75990;SDS011;64673;52.276;10.560;2023-05-15T10:15:17;5.93;;;4.50;;
75990;SDS011;64673;52.276;10.560;2023-05-15T10:17:43;5.35;;;3.92;;
75990;SDS011;64673;52.276;10.560;2023-05-15T10:20:11;6.53;;;4.28;;
75990;SDS011;64673;52.276;10.560;2023-05-15T10:22:39;6.22;;;4.40;;
75990;SDS011;64673;52.276;10.560;2023-05-15T10:25:17;5.38;;;3.90;;
75990;SDS011;64673;52.276;10.560;2023-05-15T10:27:50;5.22;;;3.80;;
75990;SDS011;64673;52.276;10.560;2023-05-15T10:30:16;5.63;;;3.75;;
75990;SDS011;64673;52.276;10.560;2023-05-15T10:35:09;6.28;;;4.03;;
75990;SDS011;64673;52.276;10.560;2023-05-15T10:37:36;7.10;;;4.00;;
75990;SDS011;64673;52.276;10.560;2023-05-15T10:40:03;7.18;;;4.00;;
75990;SDS011;64673;52.276;10.560;2023-05-15T10:42:32;5.38;;;3.80;;
75990;SDS011;64673;52.276;10.560;2023-05-15T10:47:26;6.20;;;3.85;;
75990;SDS011;64673;52.276;10.560;2023-05-15T10:49:57;7.78;;;3.88;;
75990;SDS011;64673;52.276;10.560;2023-05-15T10:52:23;5.55;;;3.70;;
75990;SDS011;64673;52.276;10.560;2023-05-15T10:54:49;5.95;;;3.67;;
75990;SDS011;64673;52.276;10.560;2023-05-15T10:57:14;4.90;;;3.53;;
75990;SDS011;64673;52.276;10.560;2023-05-15T10:59:39;4.30;;;3.58;;
75990;SDS011;64673;52.276;10.560;2023-05-15T11:02:18;5.35;;;4.00;;
75990;SDS011;64673;52.276;10.560;2023-05-15T11:04:44;8.50;;;3.92;;
75990;SDS011;64673;52.276;10.560;2023-05-15T11:07:11;6.78;;;3.90;;
75990;SDS011;64673;52.276;10.560;2023-05-15T11:09:38;6.55;;;3.67;;
75990;SDS011;64673;52.276;10.560;2023-05-15T11:12:04;8.70;;;3.78;;
75990;SDS011;64673;52.276;10.560;2023-05-15T11:14:43;4.70;;;3.72;;
75990;SDS011;64673;52.276;10.560;2023-05-15T11:22:19;6.55;;;4.05;;
75990;SDS011;64673;52.276;10.560;2023-05-15T11:24:46;7.18;;;4.20;;
75990;SDS011;64673;52.276;10.560;2023-05-15T11:35:11;5.32;;;3.85;;
75990;SDS011;64673;52.276;10.560;2023-05-15T11:37:43;5.35;;;3.72;;
75990;SDS011;64673;52.276;10.560;2023-05-15T11:40:13;6.72;;;3.90;;
75990;SDS011;64673;52.276;10.560;2023-05-15T11:43:04;5.38;;;3.78;;
75990;SDS011;64673;52.276;10.560;2023-05-15T11:45:51;5.95;;;3.70;;
75990;SDS011;64673;52.276;10.560;2023-05-15T11:48:17;5.72;;;3.28;;
75990;SDS011;64673;52.276;10.560;2023-05-15T11:50:43;6.93;;;2.83;;
75990;SDS011;64673;52.276;10.560;2023-05-15T11:53:10;5.13;;;3.33;;
75990;SDS011;64673;52.276;10.560;2023-05-15T11:55:37;6.05;;;3.00;;
75990;SDS011;64673;52.276;10.560;2023-05-15T11:58:04;6.63;;;2.80;;
75990;SDS011;64673;52.276;10.560;2023-05-15T12:00:30;4.78;;;3.40;;
75990;SDS011;64673;52.276;10.560;2023-05-15T12:02:56;8.38;;;3.15;;
75990;SDS011;64673;52.276;10.560;2023-05-15T12:05:21;6.47;;;3.38;;
75990;SDS011;64673;52.276;10.560;2023-05-15T12:07:47;6.35;;;3.50;;
75990;SDS011;64673;52.276;10.560;2023-05-15T12:10:13;5.18;;;3.03;;
75990;SDS011;64673;52.276;10.560;2023-05-15T12:12:39;4.40;;;3.08;;
75990;SDS011;64673;52.276;10.560;2023-05-15T12:15:08;3.55;;;2.97;;
75990;SDS011;64673;52.276;10.560;2023-05-15T12:17:35;5.47;;;3.00;;
75990;SDS011;64673;52.276;10.560;2023-05-15T12:20:02;5.95;;;3.15;;
75990;SDS011;64673;52.276;10.560;2023-05-15T12:22:34;5.25;;;3.25;;
75990;SDS011;64673;52.276;10.560;2023-05-15T12:25:00;4.93;;;3.47;;
75990;SDS011;64673;52.276;10.560;2023-05-15T12:27:25;6.68;;;3.40;;
75990;SDS011;64673;52.276;10.560;2023-05-15T12:29:51;5.35;;;2.90;;
75990;SDS011;64673;52.276;10.560;2023-05-15T12:32:16;4.10;;;3.25;;
75990;SDS011;64673;52.276;10.560;2023-05-15T12:34:42;3.97;;;2.92;;
75990;SDS011;64673;52.276;10.560;2023-05-15T12:37:10;6.32;;;3.55;;
75990;SDS011;64673;52.276;10.560;2023-05-15T12:39:48;4.63;;;3.47;;
75990;SDS011;64673;52.276;10.560;2023-05-15T12:42:20;5.35;;;3.67;;
75990;SDS011;64673;52.276;10.560;2023-05-15T12:44:50;6.72;;;3.83;;
75990;SDS011;64673;52.276;10.560;2023-05-15T12:47:20;9.88;;;3.55;;
75990;SDS011;64673;52.276;10.560;2023-05-15T12:49:47;7.47;;;3.58;;
75990;SDS011;64673;52.276;10.560;2023-05-15T12:52:13;6.50;;;3.92;;
75990;SDS011;64673;52.276;10.560;2023-05-15T12:54:39;4.90;;;3.83;;
75990;SDS011;64673;52.276;10.560;2023-05-15T12:57:05;6.43;;;3.47;;
75990;SDS011;64673;52.276;10.560;2023-05-15T12:59:32;6.43;;;3.67;;
75990;SDS011;64673;52.276;10.560;2023-05-15T13:01:58;5.82;;;3.60;;
75990;SDS011;64673;52.276;10.560;2023-05-15T13:04:23;8.55;;;3.97;;
75990;SDS011;64673;52.276;10.560;2023-05-15T13:06:49;7.07;;;4.20;;
75990;SDS011;64673;52.276;10.560;2023-05-15T13:09:20;8.13;;;3.95;;
75990;SDS011;64673;52.276;10.560;2023-05-15T13:11:46;4.30;;;3.58;;
75990;SDS011;64673;52.276;10.560;2023-05-15T13:14:12;5.95;;;3.80;;
75990;SDS011;64673;52.276;10.560;2023-05-15T13:16:41;6.70;;;3.58;;
75990;SDS011;64673;52.276;10.560;2023-05-15T13:19:10;7.57;;;3.53;;
75990;SDS011;64673;52.276;10.560;2023-05-15T13:21:36;6.75;;;3.70;;
75990;SDS011;64673;52.276;10.560;2023-05-15T13:24:01;7.55;;;4.30;;
75990;SDS011;64673;52.276;10.560;2023-05-15T13:26:26;5.68;;;3.90;;
75990;SDS011;64673;52.276;10.560;2023-05-15T13:28:52;4.93;;;3.65;;
75990;SDS011;64673;52.276;10.560;2023-05-15T13:31:17;5.28;;;3.38;;
75990;SDS011;64673;52.276;10.560;2023-05-15T13:33:42;5.95;;;3.42;;
75990;SDS011;64673;52.276;10.560;2023-05-15T13:36:08;7.05;;;3.63;;
75990;SDS011;64673;52.276;10.560;2023-05-15T13:38:33;7.07;;;3.17;;
75990;SDS011;64673;52.276;10.560;2023-05-15T13:40:58;4.93;;;3.08;;
75990;SDS011;64673;52.276;10.560;2023-05-15T13:43:24;4.57;;;3.47;;
75990;SDS011;64673;52.276;10.560;2023-05-15T13:45:52;4.38;;;3.17;;
75990;SDS011;64673;52.276;10.560;2023-05-15T13:48:18;6.60;;;3.40;;
75990;SDS011;64673;52.276;10.560;2023-05-15T13:50:43;6.25;;;2.97;;
75990;SDS011;64673;52.276;10.560;2023-05-15T13:53:09;4.45;;;2.92;;
75990;SDS011;64673;52.276;10.560;2023-05-15T13:55:36;5.40;;;3.15;;
75990;SDS011;64673;52.276;10.560;2023-05-15T13:58:01;6.00;;;3.22;;
75990;SDS011;64673;52.276;10.560;2023-05-15T14:00:28;5.13;;;3.03;;
75990;SDS011;64673;52.276;10.560;2023-05-15T14:02:53;6.47;;;3.50;;
75990;SDS011;64673;52.276;10.560;2023-05-15T14:05:19;5.22;;;3.15;;
75990;SDS011;64673;52.276;10.560;2023-05-15T14:07:44;5.18;;;3.25;;
75990;SDS011;64673;52.276;10.560;2023-05-15T14:10:10;7.07;;;2.95;;
75990;SDS011;64673;52.276;10.560;2023-05-15T14:12:36;4.80;;;3.35;;
75990;SDS011;64673;52.276;10.560;2023-05-15T14:15:02;10.77;;;3.50;;
75990;SDS011;64673;52.276;10.560;2023-05-15T14:17:27;3.60;;;2.92;;
75990;SDS011;64673;52.276;10.560;2023-05-15T14:19:52;4.50;;;2.85;;
75990;SDS011;64673;52.276;10.560;2023-05-15T14:22:18;4.07;;;3.17;;
75990;SDS011;64673;52.276;10.560;2023-05-15T14:24:43;4.47;;;3.20;;
75990;SDS011;64673;52.276;10.560;2023-05-15T14:27:09;6.18;;;3.10;;
75990;SDS011;64673;52.276;10.560;2023-05-15T14:29:34;6.15;;;3.17;;
75990;SDS011;64673;52.276;10.560;2023-05-15T14:32:00;4.70;;;3.10;;
75990;SDS011;64673;52.276;10.560;2023-05-15T14:34:25;4.60;;;3.20;;
75990;SDS011;64673;52.276;10.560;2023-05-15T14:36:50;3.38;;;3.08;;
75990;SDS011;64673;52.276;10.560;2023-05-15T14:39:16;5.32;;;3.70;;
75990;SDS011;64673;52.276;10.560;2023-05-15T14:41:42;5.50;;;3.38;;
75990;SDS011;64673;52.276;10.560;2023-05-15T14:44:08;7.43;;;3.72;;
75990;SDS011;64673;52.276;10.560;2023-05-15T14:46:34;7.20;;;4.03;;
75990;SDS011;64673;52.276;10.560;2023-05-15T14:49:03;4.97;;;3.67;;
75990;SDS011;64673;52.276;10.560;2023-05-15T14:51:29;6.78;;;4.13;;
75990;SDS011;64673;52.276;10.560;2023-05-15T14:53:55;6.85;;;3.55;;
75990;SDS011;64673;52.276;10.560;2023-05-15T14:56:20;6.68;;;3.70;;
75990;SDS011;64673;52.276;10.560;2023-05-15T14:58:46;5.97;;;3.85;;
75990;SDS011;64673;52.276;10.560;2023-05-15T15:01:12;7.35;;;4.30;;
75990;SDS011;64673;52.276;10.560;2023-05-15T15:03:38;5.93;;;4.55;;